Time;durP1;ratioP1;P1;durP2;ratioP2;P2;SDS_P1;SDS_P2;PMS_P1;PMS_P2;Temp;Humidity;BMP_temperature;BMP_pressure;BME280_temperature;BME280_humidity;BME280_pressure;Samples;Min_cycle;Max_cycle;Signal;HPM_P1;HPM_P2
2021/03/31 00:00:23;;;;;;;13.10;11.67;;;;;;;;;;5106291;28;20176;-42
2021/03/31 00:02:53;;;;;;;14.80;11.67;;;;;;;;;;5105753;28;20179;-41
2021/03/31 00:05:18;;;;;;;13.47;12.07;;;;;;;;;;5107865;28;20683;-42
2021/03/31 00:07:43;;;;;;;13.07;11.77;;;;;;;;;;5107121;28;20698;-42
2021/03/31 00:10:19;;;;;;;13.35;11.98;;;;;;;;;;5100997;28;20264;-41
2021/03/31 00:12:44;;;;;;;13.27;11.80;;;;;;;;;;5102656;28;20185;-42
2021/03/31 00:15:10;;;;;;;13.77;11.87;;;;;;;;;;5097152;28;20608;-42
2021/03/31 00:17:35;;;;;;;13.10;11.80;;;;;;;;;;5101652;28;20245;-42
2021/03/31 00:20:00;;;;;;;13.85;12.10;;;;;;;;;;5106672;28;20250;-42
2021/03/31 00:22:25;;;;;;;13.40;12.00;;;;;;;;;;5103670;28;20589;-42
2021/03/31 00:24:51;;;;;;;14.00;11.90;;;;;;;;;;5107039;28;20407;-42
2021/03/31 00:27:16;;;;;;;13.57;12.27;;;;;;;;;;5101004;28;20183;-43
2021/03/31 00:29:41;;;;;;;12.48;11.38;;;;;;;;;;5105954;28;20483;-42
2021/03/31 00:32:06;;;;;;;12.63;11.43;;;;;;;;;;5104023;28;20170;-42
2021/03/31 00:34:31;;;;;;;11.27;9.87;;;;;;;;;;5102976;28;20318;-43
2021/03/31 00:36:57;;;;;;;12.30;11.20;;;;;;;;;;5096628;28;20669;-42
2021/03/31 00:39:22;;;;;;;12.50;11.27;;;;;;;;;;5103620;28;20695;-43
2021/03/31 00:41:47;;;;;;;13.00;11.57;;;;;;;;;;5104072;28;20195;-43
2021/03/31 00:44:12;;;;;;;15.00;12.83;;;;;;;;;;5107104;28;20202;-42
2021/03/31 00:46:37;;;;;;;11.70;10.60;;;;;;;;;;5105148;28;20194;-43
2021/03/31 00:49:02;;;;;;;11.77;10.68;;;;;;;;;;5103943;28;20547;-43
2021/03/31 00:51:28;;;;;;;12.23;10.93;;;;;;;;;;5107648;28;20196;-43
2021/03/31 00:53:53;;;;;;;12.40;11.20;;;;;;;;;;5105590;28;20188;-43
2021/03/31 00:56:18;;;;;;;13.43;11.20;;;;;;;;;;5103724;28;20316;-42
2021/03/31 00:58:43;;;;;;;13.40;11.47;;;;;;;;;;5106308;28;20315;-42
2021/03/31 01:01:10;;;;;;;12.57;11.37;;;;;;;;;;5096215;28;20179;-42
2021/03/31 01:03:35;;;;;;;13.37;11.73;;;;;;;;;;5104711;28;20177;-41
2021/03/31 01:06:00;;;;;;;11.43;10.43;;;;;;;;;;5099018;28;20605;-42
2021/03/31 01:08:25;;;;;;;12.73;11.43;;;;;;;;;;5102247;28;20668;-42
2021/03/31 01:10:52;;;;;;;12.40;11.20;;;;;;;;;;5096044;28;20172;-42
2021/03/31 01:13:28;;;;;;;15.17;11.80;;;;;;;;;;5099835;28;20229;-41
2021/03/31 01:16:13;;;;;;;11.93;10.73;;;;;;;;;;5103792;27;20614;-42
2021/03/31 01:18:38;;;;;;;12.70;11.50;;;;;;;;;;5096433;28;20671;-42
2021/03/31 01:21:22;;;;;;;12.93;11.63;;;;;;;;;;5104373;28;20604;-43
2021/03/31 01:24:17;;;;;;;12.63;11.13;;;;;;;;;;5100112;28;20190;-42
2021/03/31 01:26:52;;;;;;;14.10;12.10;;;;;;;;;;5049287;28;20605;-42
2021/03/31 01:29:40;;;;;;;14.70;11.47;;;;;;;;;;5095884;28;21276;-42
2021/03/31 01:32:21;;;;;;;12.70;11.40;;;;;;;;;;5106043;28;20602;-42
2021/03/31 01:34:56;;;;;;;14.20;12.10;;;;;;;;;;5103014;28;20658;-42
2021/03/31 01:37:23;;;;;;;13.73;12.33;;;;;;;;;;5107468;28;21345;-42
2021/03/31 01:39:48;;;;;;;12.03;11.03;;;;;;;;;;5105318;28;21242;-42
2021/03/31 01:42:15;;;;;;;13.10;11.60;;;;;;;;;;5106189;28;20606;-42
2021/03/31 01:44:41;;;;;;;15.80;12.77;;;;;;;;;;5105626;28;20258;-42
2021/03/31 01:47:07;;;;;;;13.23;11.40;;;;;;;;;;5102374;28;20600;-42
2021/03/31 01:49:32;;;;;;;13.03;11.73;;;;;;;;;;5104476;28;20732;-43
2021/03/31 01:52:00;;;;;;;12.33;11.13;;;;;;;;;;5102413;28;21026;-42
2021/03/31 01:54:26;;;;;;;12.30;11.00;;;;;;;;;;5101915;28;20235;-42
2021/03/31 01:56:52;;;;;;;13.03;11.70;;;;;;;;;;5102616;28;21175;-42
2021/03/31 01:59:18;;;;;;;11.80;10.70;;;;;;;;;;5097403;28;21254;-43
2021/03/31 02:01:45;;;;;;;13.50;11.70;;;;;;;;;;5103762;27;20209;-42
2021/03/31 02:04:11;;;;;;;12.60;11.30;;;;;;;;;;5095460;28;20695;-43
2021/03/31 02:06:36;;;;;;;12.70;10.50;;;;;;;;;;5106216;28;20702;-42
2021/03/31 02:09:02;;;;;;;14.67;10.53;;;;;;;;;;5098868;28;20174;-42
2021/03/31 02:11:28;;;;;;;11.97;10.87;;;;;;;;;;5100682;28;20586;-42
2021/03/31 02:13:53;;;;;;;12.17;10.97;;;;;;;;;;5102858;28;20209;-41
2021/03/31 02:16:19;;;;;;;13.37;11.90;;;;;;;;;;5102971;28;20250;-40
2021/03/31 02:18:45;;;;;;;13.17;11.77;;;;;;;;;;5102229;28;20198;-41
2021/03/31 02:21:12;;;;;;;13.23;11.67;;;;;;;;;;5104539;28;21027;-41
2021/03/31 02:23:38;;;;;;;13.20;11.90;;;;;;;;;;5103266;27;20185;-41
2021/03/31 02:26:03;;;;;;;12.43;11.13;;;;;;;;;;5093590;28;21148;-41
2021/03/31 02:28:30;;;;;;;12.80;11.53;;;;;;;;;;5097608;28;20612;-42
2021/03/31 02:30:55;;;;;;;11.03;9.70;;;;;;;;;;5104125;28;20181;-42
2021/03/31 02:33:21;;;;;;;13.50;10.83;;;;;;;;;;5100648;28;20611;-43
2021/03/31 02:35:46;;;;;;;12.60;11.30;;;;;;;;;;5099779;28;20657;-42
2021/03/31 02:38:13;;;;;;;12.50;11.20;;;;;;;;;;5105635;28;20249;-43
2021/03/31 02:40:39;;;;;;;14.60;10.80;;;;;;;;;;5103069;28;20194;-45
2021/03/31 02:43:06;;;;;;;12.53;11.23;;;;;;;;;;5099320;28;21420;-43
2021/03/31 02:45:32;;;;;;;12.87;11.00;;;;;;;;;;5104520;28;21128;-43
2021/03/31 02:47:59;;;;;;;14.87;12.10;;;;;;;;;;5099417;28;20618;-43
2021/03/31 02:50:25;;;;;;;14.87;12.90;;;;;;;;;;5099630;28;20596;-42
2021/03/31 02:52:50;;;;;;;16.03;12.77;;;;;;;;;;5105996;28;21212;-43
2021/03/31 02:55:16;;;;;;;16.87;13.20;;;;;;;;;;5100071;28;20618;-42
2021/03/31 02:57:43;;;;;;;13.93;12.07;;;;;;;;;;5102217;28;20248;-43
2021/03/31 03:00:09;;;;;;;13.50;12.10;;;;;;;;;;5104407;28;20600;-43
2021/03/31 03:02:38;;;;;;;15.27;12.03;;;;;;;;;;5098422;28;20607;-42
2021/03/31 03:05:04;;;;;;;13.73;12.30;;;;;;;;;;5103006;28;21037;-42
2021/03/31 03:07:29;;;;;;;13.60;12.13;;;;;;;;;;5100715;28;20639;-43
2021/03/31 03:09:55;;;;;;;15.97;11.97;;;;;;;;;;5098151;28;20619;-43
2021/03/31 03:12:21;;;;;;;13.80;11.63;;;;;;;;;;5099343;28;20183;-42
2021/03/31 03:14:47;;;;;;;14.80;11.67;;;;;;;;;;5106773;28;20585;-43
2021/03/31 03:17:12;;;;;;;12.90;11.70;;;;;;;;;;5100735;28;21144;-43
2021/03/31 03:19:37;;;;;;;13.07;11.77;;;;;;;;;;5104947;28;20649;-44
2021/03/31 03:22:03;;;;;;;13.90;11.77;;;;;;;;;;5095004;28;20189;-43
2021/03/31 03:24:28;;;;;;;12.90;11.50;;;;;;;;;;5102333;28;20252;-42
2021/03/31 03:26:54;;;;;;;13.23;11.90;;;;;;;;;;5096571;28;20182;-42
2021/03/31 03:29:19;;;;;;;12.20;10.90;;;;;;;;;;5095281;28;20177;-42
2021/03/31 03:31:44;;;;;;;12.30;11.00;;;;;;;;;;5105454;28;20521;-43
2021/03/31 03:34:10;;;;;;;15.93;12.50;;;;;;;;;;5103874;28;20295;-47
2021/03/31 03:36:38;;;;;;;17.03;10.60;;;;;;;;;;5100331;28;20182;-43
2021/03/31 03:39:04;;;;;;;12.30;11.10;;;;;;;;;;5109373;28;20204;-42
2021/03/31 03:41:29;;;;;;;16.43;11.67;;;;;;;;;;5108023;28;20676;-42
2021/03/31 03:43:55;;;;;;;13.13;11.40;;;;;;;;;;5106648;28;20204;-42
2021/03/31 03:46:20;;;;;;;12.73;11.33;;;;;;;;;;5095551;28;20256;-42
2021/03/31 03:48:46;;;;;;;11.67;10.50;;;;;;;;;;5098732;28;20614;-42
2021/03/31 03:51:11;;;;;;;14.60;12.17;;;;;;;;;;5108228;28;20181;-43
2021/03/31 03:53:36;;;;;;;17.00;11.53;;;;;;;;;;5103611;28;20758;-42
2021/03/31 03:56:03;;;;;;;15.90;11.73;;;;;;;;;;5103086;28;20228;-42
2021/03/31 03:58:28;;;;;;;12.87;11.60;;;;;;;;;;5100606;28;20574;-42
2021/03/31 04:00:55;;;;;;;17.23;12.60;;;;;;;;;;5103682;28;20619;-43
2021/03/31 04:03:20;;;;;;;13.63;11.73;;;;;;;;;;5107219;28;20662;-43
2021/03/31 04:05:45;;;;;;;17.37;12.77;;;;;;;;;;5105830;28;20721;-43
2021/03/31 04:08:10;;;;;;;14.60;11.93;;;;;;;;;;5107750;28;25116;-43
2021/03/31 04:10:35;;;;;;;13.97;11.70;;;;;;;;;;5101082;28;20227;-42
2021/03/31 04:13:01;;;;;;;13.90;12.50;;;;;;;;;;5095650;28;20183;-43
2021/03/31 04:15:27;;;;;;;13.80;11.23;;;;;;;;;;5101234;28;20582;-42
2021/03/31 04:17:52;;;;;;;13.00;11.60;;;;;;;;;;5106980;28;20817;-42
2021/03/31 04:20:22;;;;;;;13.23;11.83;;;;;;;;;;5099612;28;20184;-43
2021/03/31 04:22:47;;;;;;;13.77;11.70;;;;;;;;;;5104449;28;20183;-42
2021/03/31 04:25:13;;;;;;;13.00;11.70;;;;;;;;;;5103092;28;24413;-43
2021/03/31 04:27:38;;;;;;;;;;;;;;;;;;5093102;28;20024;-43
2021/03/31 04:30:03;;;;;;;;;;;;;;;;;;5104040;28;20005;-42
2021/03/31 04:32:28;;;;;;;;;;;;;;;;;;5099821;28;20449;-42
2021/03/31 04:34:53;;;;;;;;;;;;;;;;;;5098539;28;19908;-42
2021/03/31 04:37:18;;;;;;;;;;;;;;;;;;5104432;28;19960;-42
2021/03/31 04:39:43;;;;;;;;;;;;;;;;;;5098823;28;19915;-43
2021/03/31 04:42:09;;;;;;;26.60;23.55;;;;;;;;;;5107008;28;20714;-43
2021/03/31 04:44:35;;;;;;;27.90;20.73;;;;;;;;;;5101445;28;20705;-42
2021/03/31 04:47:01;;;;;;;19.13;15.97;;;;;;;;;;5081183;28;20181;-40
2021/03/31 04:49:26;;;;;;;18.23;14.20;;;;;;;;;;5100322;28;20181;-41
2021/03/31 04:51:51;;;;;;;19.73;13.80;;;;;;;;;;5104954;28;20603;-41
2021/03/31 04:54:17;;;;;;;15.68;12.88;;;;;;;;;;5100536;28;20238;-41
2021/03/31 04:56:42;;;;;;;16.20;12.50;;;;;;;;;;5108856;28;20220;-43
2021/03/31 04:59:07;;;;;;;14.27;12.77;;;;;;;;;;5103544;28;20259;-42
2021/03/31 05:01:32;;;;;;;15.43;12.90;;;;;;;;;;5104477;28;20199;-42
2021/03/31 05:03:57;;;;;;;13.67;11.60;;;;;;;;;;5108238;28;20230;-43
2021/03/31 05:06:22;;;;;;;13.33;11.90;;;;;;;;;;5108146;28;20312;-42
2021/03/31 05:08:48;;;;;;;13.40;10.80;;;;;;;;;;5107494;28;22083;-44
2021/03/31 05:11:13;;;;;;;18.20;13.40;;;;;;;;;;5106305;28;20218;-43
2021/03/31 05:13:38;;;;;;;16.30;14.00;;;;;;;;;;5107210;28;20264;-43
2021/03/31 05:16:03;;;;;;;13.57;12.23;;;;;;;;;;5106124;28;20199;-43
2021/03/31 05:18:28;;;;;;;13.83;11.97;;;;;;;;;;5107416;28;20224;-43
2021/03/31 05:20:54;;;;;;;14.85;12.20;;;;;;;;;;5105373;28;20189;-42
2021/03/31 05:23:19;;;;;;;13.10;11.70;;;;;;;;;;5107912;28;20189;-43
2021/03/31 05:25:44;;;;;;;14.18;12.05;;;;;;;;;;5107421;28;20181;-43
2021/03/31 05:28:09;;;;;;;12.83;11.30;;;;;;;;;;5109025;28;20699;-43
2021/03/31 05:30:34;;;;;;;12.63;11.33;;;;;;;;;;5104182;28;20296;-42
2021/03/31 05:32:59;;;;;;;12.45;11.15;;;;;;;;;;5103112;28;20878;-43
2021/03/31 05:35:25;;;;;;;13.80;11.63;;;;;;;;;;5103695;28;20188;-43
2021/03/31 05:37:50;;;;;;;13.43;11.77;;;;;;;;;;5107598;28;20208;-43
2021/03/31 05:40:17;;;;;;;12.98;10.90;;;;;;;;;;5106425;28;20201;-44
2021/03/31 05:42:42;;;;;;;14.90;12.43;;;;;;;;;;5087734;28;20404;-44
2021/03/31 05:45:11;;;;;;;13.07;11.60;;;;;;;;;;5100257;28;21200;-42
2021/03/31 05:47:39;;;;;;;14.13;10.83;;;;;;;;;;5102368;28;20178;-43
2021/03/31 05:50:05;;;;;;;12.37;11.10;;;;;;;;;;5100728;28;20609;-42
2021/03/31 05:52:30;;;;;;;13.40;11.53;;;;;;;;;;5100231;28;20730;-42
2021/03/31 05:54:55;;;;;;;12.33;10.80;;;;;;;;;;5101265;28;20594;-41
2021/03/31 05:57:21;;;;;;;12.70;11.00;;;;;;;;;;5099818;28;20222;-42
2021/03/31 05:59:46;;;;;;;12.10;10.83;;;;;;;;;;5094297;28;20265;-42
2021/03/31 06:02:12;;;;;;;12.13;10.53;;;;;;;;;;5102389;28;20701;-42
2021/03/31 06:04:38;;;;;;;12.83;10.97;;;;;;;;;;5095369;28;20188;-41
2021/03/31 06:07:04;;;;;;;12.50;11.20;;;;;;;;;;5099008;28;20617;-42
2021/03/31 06:09:29;;;;;;;17.00;12.33;;;;;;;;;;5097290;28;20738;-43
2021/03/31 06:11:57;;;;;;;12.10;10.90;;;;;;;;;;5097871;28;20179;-43
2021/03/31 06:14:34;;;;;;;14.77;11.20;;;;;;;;;;5097030;28;20228;-42
2021/03/31 06:17:11;;;;;;;12.37;11.20;;;;;;;;;;5097171;28;21141;-42
2021/03/31 06:19:40;;;;;;;13.03;11.30;;;;;;;;;;5101591;28;20649;-42
2021/03/31 06:22:18;;;;;;;12.37;11.07;;;;;;;;;;5101119;28;20612;-42
2021/03/31 06:24:46;;;;;;;13.93;10.90;;;;;;;;;;5100368;28;20600;-42
2021/03/31 06:27:12;;;;;;;12.30;10.63;;;;;;;;;;5101669;28;20613;-42
2021/03/31 06:29:43;;;;;;;13.50;12.20;;;;;;;;;;5100140;28;20618;-42
2021/03/31 06:32:15;;;;;;;10.77;9.68;;;;;;;;;;5101954;28;24429;-43
2021/03/31 06:34:49;;;;;;;11.52;10.38;;;;;;;;;;5100166;28;24425;-43
2021/03/31 06:37:21;;;;;;;10.57;9.68;;;;;;;;;;5102184;28;25031;-43
2021/03/31 06:39:50;;;;;;;12.23;10.80;;;;;;;;;;5103291;28;20250;-42
2021/03/31 06:42:18;;;;;;;13.87;12.40;;;;;;;;;;5104225;28;20625;-42
2021/03/31 06:45:07;;;;;;;13.37;12.07;;;;;;;;;;5100689;28;20666;-43
2021/03/31 06:47:44;;;;;;;12.90;11.60;;;;;;;;;;5099847;28;20629;-42
2021/03/31 06:50:11;;;;;;;17.00;12.80;;;;;;;;;;5098099;28;21144;-42
2021/03/31 06:52:55;;;;;;;14.67;13.07;;;;;;;;;;5099280;28;21187;-42
2021/03/31 06:55:20;;;;;;;14.93;13.00;;;;;;;;;;5098477;28;20647;-42
2021/03/31 06:57:55;;;;;;;14.77;12.63;;;;;;;;;;5095024;28;21198;-43
2021/03/31 07:00:28;;;;;;;14.40;12.90;;;;;;;;;;5093401;28;20175;-42
2021/03/31 07:02:54;;;;;;;13.53;12.00;;;;;;;;;;5099190;28;20966;-43
2021/03/31 07:05:20;;;;;;;13.83;11.07;;;;;;;;;;5098456;28;20607;-43
2021/03/31 07:07:45;;;;;;;12.37;11.07;;;;;;;;;;5105619;28;20622;-42
2021/03/31 07:10:12;;;;;;;13.27;11.80;;;;;;;;;;5106007;28;20185;-42
2021/03/31 07:12:38;;;;;;;12.20;10.90;;;;;;;;;;5095676;28;20245;-42
2021/03/31 07:15:04;;;;;;;11.83;10.63;;;;;;;;;;5100792;27;20606;-43
2021/03/31 07:17:30;;;;;;;12.00;10.80;;;;;;;;;;5105607;27;20605;-43
2021/03/31 07:19:56;;;;;;;15.87;10.83;;;;;;;;;;5111096;28;20256;-41
2021/03/31 07:22:21;;;;;;;12.43;9.70;;;;;;;;;;5111894;28;20618;-42
2021/03/31 07:24:46;;;;;;;17.40;11.27;;;;;;;;;;5109749;28;20259;-41
2021/03/31 07:27:13;;;;;;;15.03;11.27;;;;;;;;;;5110557;28;20549;-43
2021/03/31 07:29:41;;;;;;;12.33;10.07;;;;;;;;;;5111017;28;20182;-42
2021/03/31 07:32:08;;;;;;;11.40;10.30;;;;;;;;;;5110805;28;20705;-42
2021/03/31 07:34:34;;;;;;;12.93;10.83;;;;;;;;;;5109186;28;20611;-42
2021/03/31 07:36:59;;;;;;;11.57;10.37;;;;;;;;;;5109215;28;21308;-42
2021/03/31 07:39:27;;;;;;;11.40;10.20;;;;;;;;;;5107527;28;20202;-42
2021/03/31 07:41:53;;;;;;;11.23;10.00;;;;;;;;;;5108828;28;20247;-42
2021/03/31 07:44:22;;;;;;;11.37;9.60;;;;;;;;;;5111322;28;20594;-42
2021/03/31 07:46:48;;;;;;;11.67;10.00;;;;;;;;;;5104682;28;20696;-42
2021/03/31 07:49:14;;;;;;;11.53;9.50;;;;;;;;;;5110050;28;20636;-42
2021/03/31 07:51:52;;;;;;;13.47;10.80;;;;;;;;;;5097465;28;20640;-42
2021/03/31 07:54:18;;;;;;;12.67;10.40;;;;;;;;;;5097330;28;20186;-42
2021/03/31 07:56:43;;;;;;;13.90;12.45;;;;;;;;;;5110094;28;20712;-42
2021/03/31 07:59:11;;;;;;;13.50;11.30;;;;;;;;;;5109610;28;20302;-42
2021/03/31 08:01:38;;;;;;;12.27;11.03;;;;;;;;;;5109765;28;20269;-42
2021/03/31 08:04:04;;;;;;;12.40;11.10;;;;;;;;;;5091867;28;20694;-42
2021/03/31 08:06:30;;;;;;;13.50;11.10;;;;;;;;;;5110395;28;20676;-43
2021/03/31 08:08:56;;;;;;;13.67;11.60;;;;;;;;;;5111417;28;20179;-42
2021/03/31 08:11:40;;;;;;;13.23;11.40;;;;;;;;;;5109176;28;20972;-43
2021/03/31 08:14:09;;;;;;;16.27;12.27;;;;;;;;;;5111416;27;20613;-43
2021/03/31 08:16:38;;;;;;;14.20;12.07;;;;;;;;;;5107386;28;20619;-43
2021/03/31 08:19:04;;;;;;;14.93;11.90;;;;;;;;;;5107743;28;20738;-43
2021/03/31 08:21:31;;;;;;;15.07;12.60;;;;;;;;;;5109455;28;21175;-43
2021/03/31 08:23:57;;;;;;;13.87;12.50;;;;;;;;;;5110597;28;21140;-44
2021/03/31 08:26:26;;;;;;;13.50;12.10;;;;;;;;;;5108495;28;20940;-43
2021/03/31 08:28:51;;;;;;;14.40;12.03;;;;;;;;;;5110221;28;20631;-42
2021/03/31 08:31:20;;;;;;;14.75;12.13;;;;;;;;;;5108978;28;20622;-43
2021/03/31 08:33:46;;;;;;;18.17;13.70;;;;;;;;;;5109805;28;20200;-43
2021/03/31 08:36:11;;;;;;;20.00;12.63;;;;;;;;;;5109640;28;20586;-43
2021/03/31 08:38:36;;;;;;;14.23;12.33;;;;;;;;;;5110279;28;20193;-43
2021/03/31 08:41:17;;;;;;;13.38;11.95;;;;;;;;;;5090991;28;20201;-42
2021/03/31 08:43:45;;;;;;;18.33;12.73;;;;;;;;;;5090401;28;20182;-44
2021/03/31 08:46:10;;;;;;;18.27;13.63;;;;;;;;;;5109282;28;20618;-43
2021/03/31 08:48:36;;;;;;;17.67;13.07;;;;;;;;;;5109928;28;20591;-43
2021/03/31 08:51:11;;;;;;;18.40;12.60;;;;;;;;;;5109627;28;20269;-43
2021/03/31 08:53:36;;;;;;;15.50;12.17;;;;;;;;;;5110420;28;20897;-44
2021/03/31 08:56:02;;;;;;;14.13;11.93;;;;;;;;;;5107459;28;20669;-44
2021/03/31 08:58:27;;;;;;;13.40;11.67;;;;;;;;;;5110047;28;20212;-44
2021/03/31 09:00:53;;;;;;;21.10;13.57;;;;;;;;;;5107496;28;20259;-44
2021/03/31 09:03:22;;;;;;;17.23;11.87;;;;;;;;;;5110228;28;20179;-43
2021/03/31 09:06:00;;;;;;;13.40;11.80;;;;;;;;;;5090310;28;20177;-42
2021/03/31 09:08:26;;;;;;;13.43;11.77;;;;;;;;;;5108937;28;20682;-44
2021/03/31 09:10:53;;;;;;;15.57;11.30;;;;;;;;;;5108573;28;20615;-43
2021/03/31 09:13:24;;;;;;;13.80;11.70;;;;;;;;;;5110153;28;20605;-44
2021/03/31 09:15:54;;;;;;;19.20;13.30;;;;;;;;;;5108548;28;20591;-48
2021/03/31 09:18:19;;;;;;;13.33;11.57;;;;;;;;;;5109906;28;20642;-43
2021/03/31 09:20:44;;;;;;;15.37;12.10;;;;;;;;;;5108990;28;20620;-44
2021/03/31 09:23:17;;;;;;;13.93;10.93;;;;;;;;;;5109679;28;20170;-43
2021/03/31 09:25:42;;;;;;;17.20;12.53;;;;;;;;;;5108105;28;20179;-43
2021/03/31 09:28:14;;;;;;;16.52;11.77;;;;;;;;;;5109281;28;20906;-44
2021/03/31 09:30:40;;;;;;;14.00;11.30;;;;;;;;;;5107261;28;20281;-43
2021/03/31 09:33:12;;;;;;;24.83;11.97;;;;;;;;;;5109942;28;21274;-44
2021/03/31 09:35:37;;;;;;;20.57;12.27;;;;;;;;;;5107324;28;20524;-43
2021/03/31 09:38:03;;;;;;;16.77;12.30;;;;;;;;;;5109507;28;20713;-43
2021/03/31 09:40:30;;;;;;;13.80;10.77;;;;;;;;;;5107822;28;20259;-44
2021/03/31 09:43:02;;;;;;;14.90;11.57;;;;;;;;;;5109338;28;20183;-44
2021/03/31 09:45:28;;;;;;;13.60;9.83;;;;;;;;;;5108613;28;20618;-44
2021/03/31 09:47:54;;;;;;;11.80;10.30;;;;;;;;;;5108482;28;20773;-44
2021/03/31 09:50:22;;;;;;;15.73;11.10;;;;;;;;;;5108579;28;21304;-44
2021/03/31 09:52:52;;;;;;;13.63;10.67;;;;;;;;;;5109096;28;20686;-42
2021/03/31 09:55:18;;;;;;;12.23;10.07;;;;;;;;;;5108241;28;20634;-44
2021/03/31 09:57:45;;;;;;;11.80;10.43;;;;;;;;;;5107594;28;20652;-43
2021/03/31 10:00:12;;;;;;;14.00;10.90;;;;;;;;;;5102832;28;20160;-44
2021/03/31 10:02:37;;;;;;;10.93;9.83;;;;;;;;;;5091152;28;20628;-44
2021/03/31 10:05:04;;;;;;;11.93;9.80;;;;;;;;;;5099682;28;20634;-44
2021/03/31 10:07:29;;;;;;;11.80;9.40;;;;;;;;;;5093304;28;20174;-44
2021/03/31 10:09:55;;;;;;;11.10;9.67;;;;;;;;;;5105152;28;20608;-43
2021/03/31 10:12:27;;;;;;;10.03;8.30;;;;;;;;;;5107070;28;20631;-43
2021/03/31 10:14:55;;;;;;;13.90;8.97;;;;;;;;;;5100154;28;20226;-43
2021/03/31 10:17:21;;;;;;;10.23;8.70;;;;;;;;;;5091143;28;20620;-44
2021/03/31 10:19:47;;;;;;;10.80;9.40;;;;;;;;;;5097727;28;20682;-44
2021/03/31 10:22:13;;;;;;;10.20;9.00;;;;;;;;;;5100132;28;21192;-44
2021/03/31 10:24:40;;;;;;;12.80;10.13;;;;;;;;;;5093240;28;21045;-44
2021/03/31 10:27:05;;;;;;;14.73;10.23;;;;;;;;;;5103064;28;20609;-44
2021/03/31 10:29:31;;;;;;;12.87;9.33;;;;;;;;;;5106193;28;20587;-44
2021/03/31 10:31:59;;;;;;;10.00;8.63;;;;;;;;;;5102155;28;20192;-44
2021/03/31 10:34:35;;;;;;;9.70;8.60;;;;;;;;;;5108251;28;20185;-44
2021/03/31 10:50:38;;;;;;;7.83;7.10;;;;;;;;;;5106236;28;20569;-44
2021/03/31 10:53:04;;;;;;;8.27;7.50;;;;;;;;;;5107337;28;20584;-43
2021/03/31 10:55:29;;;;;;;7.33;6.63;;;;;;;;;;5108545;28;21426;-43
2021/03/31 10:57:54;;;;;;;9.03;7.53;;;;;;;;;;5110856;28;20611;-45
2021/03/31 11:00:19;;;;;;;11.67;7.73;;;;;;;;;;5106368;28;20171;-43
2021/03/31 11:02:45;;;;;;;8.90;8.00;;;;;;;;;;5111464;28;20185;-43
2021/03/31 11:05:10;;;;;;;9.00;8.10;;;;;;;;;;5102055;28;20655;-44
2021/03/31 11:07:35;;;;;;;10.03;8.30;;;;;;;;;;5101069;28;20652;-43
2021/03/31 11:10:01;;;;;;;9.23;8.00;;;;;;;;;;5104495;28;20240;-44
2021/03/31 11:12:26;;;;;;;8.87;7.87;;;;;;;;;;5104643;28;20197;-42
2021/03/31 11:14:51;;;;;;;8.43;7.53;;;;;;;;;;5092836;28;20178;-44
2021/03/31 11:17:21;;;;;;;8.40;7.50;;;;;;;;;;5106626;28;20181;-44
2021/03/31 11:19:56;;;;;;;9.80;8.60;;;;;;;;;;5099834;28;20208;-44
2021/03/31 11:27:49;;;;;;;10.53;9.13;;;;;;;;;;5097455;28;20652;-44
2021/03/31 11:30:14;;;;;;;9.85;8.85;;;;;;;;;;5092443;28;20606;-44
2021/03/31 11:32:39;;;;;;;11.37;9.17;;;;;;;;;;5101512;28;20271;-44
2021/03/31 11:35:05;;;;;;;10.40;9.40;;;;;;;;;;5106388;28;20174;-44
2021/03/31 11:37:30;;;;;;;10.80;9.80;;;;;;;;;;5104114;28;20176;-44
2021/03/31 11:39:56;;;;;;;11.93;10.30;;;;;;;;;;5107386;28;20290;-44
2021/03/31 11:42:21;;;;;;;12.10;10.20;;;;;;;;;;5105628;28;20524;-44
2021/03/31 11:44:46;;;;;;;14.23;10.90;;;;;;;;;;5104985;28;20716;-44
2021/03/31 11:47:11;;;;;;;11.33;10.13;;;;;;;;;;5106614;28;20179;-44
2021/03/31 11:49:36;;;;;;;13.33;11.33;;;;;;;;;;5106695;28;20225;-44
2021/03/31 11:52:03;;;;;;;10.70;9.70;;;;;;;;;;5105621;28;20187;-44
2021/03/31 11:54:28;;;;;;;11.20;10.10;;;;;;;;;;5105746;28;20177;-44
2021/03/31 11:56:53;;;;;;;13.68;10.88;;;;;;;;;;5105244;28;20635;-44
2021/03/31 11:59:18;;;;;;;11.93;10.60;;;;;;;;;;5108085;28;20200;-44
2021/03/31 12:01:43;;;;;;;15.77;11.90;;;;;;;;;;5107471;28;20203;-44
2021/03/31 12:04:10;;;;;;;11.73;10.53;;;;;;;;;;5108218;28;20170;-44
2021/03/31 12:06:35;;;;;;;12.30;11.10;;;;;;;;;;5107499;28;20222;-44
2021/03/31 12:09:01;;;;;;;12.00;10.65;;;;;;;;;;5105499;28;20611;-44
2021/03/31 12:11:26;;;;;;;11.43;10.30;;;;;;;;;;5104599;28;20217;-43
2021/03/31 12:13:51;;;;;;;13.25;11.85;;;;;;;;;;5101851;28;20266;-43
2021/03/31 12:16:16;;;;;;;10.80;9.63;;;;;;;;;;5102960;28;20265;-43
2021/03/31 12:18:41;;;;;;;11.83;10.70;;;;;;;;;;5108167;28;20200;-43
2021/03/31 12:21:07;;;;;;;11.60;10.47;;;;;;;;;;5100793;28;20266;-44
2021/03/31 12:23:32;;;;;;;11.23;10.13;;;;;;;;;;5106423;28;20184;-44
2021/03/31 12:25:58;;;;;;;12.70;11.40;;;;;;;;;;5108719;28;20197;-43
2021/03/31 12:28:26;;;;;;;14.33;11.70;;;;;;;;;;5110403;28;20170;-44
2021/03/31 12:30:51;;;;;;;14.07;12.67;;;;;;;;;;5107627;27;20536;-44
2021/03/31 12:33:16;;;;;;;13.30;11.63;;;;;;;;;;5105403;28;20636;-44
2021/03/31 12:35:41;;;;;;;14.10;12.60;;;;;;;;;;5109328;28;20189;-43
2021/03/31 12:38:07;;;;;;;12.47;11.37;;;;;;;;;;5109863;28;20200;-44
2021/03/31 12:40:32;;;;;;;11.70;10.60;;;;;;;;;;5109019;28;20204;-44
2021/03/31 12:42:57;;;;;;;12.47;11.23;;;;;;;;;;5092467;28;20170;-44
2021/03/31 12:45:22;;;;;;;11.80;10.77;;;;;;;;;;5105452;28;20636;-44
2021/03/31 12:47:49;;;;;;;12.13;10.93;;;;;;;;;;5103358;28;20653;-44
2021/03/31 12:50:17;;;;;;;12.10;10.87;;;;;;;;;;5092408;28;20169;-44
2021/03/31 12:55:11;;;;;;;12.33;11.10;;;;;;;;;;5101890;28;20727;-45
2021/03/31 12:57:37;;;;;;;14.00;11.70;;;;;;;;;;5109847;28;20170;-45
2021/03/31 13:00:04;;;;;;;12.17;10.97;;;;;;;;;;5110081;28;20987;-43
2021/03/31 13:02:29;;;;;;;12.03;10.93;;;;;;;;;;5121368;27;20178;-43
2021/03/31 13:04:54;;;;;;;13.67;12.27;;;;;;;;;;5107292;28;20668;-43
2021/03/31 13:07:20;;;;;;;10.33;9.33;;;;;;;;;;5108293;28;20182;-43
2021/03/31 13:09:45;;;;;;;12.40;9.93;;;;;;;;;;5090766;28;20175;-45
2021/03/31 13:12:19;;;;;;;10.07;9.00;;;;;;;;;;5110057;28;20598;-44
2021/03/31 13:15:18;;;;;;;12.33;10.13;;;;;;;;;;5109898;28;20257;-44
2021/03/31 13:25:46;;;;;;;12.93;10.90;;;;;;;;;;5108397;28;20609;-44
2021/03/31 13:30:51;;;;;;;9.93;8.97;;;;;;;;;;5101497;28;20573;-44
2021/03/31 13:33:23;;;;;;;11.90;10.00;;;;;;;;;;5101935;28;20964;-44
2021/03/31 13:35:55;;;;;;;9.70;8.70;;;;;;;;;;5103566;28;20988;-45
2021/03/31 13:38:51;;;;;;;11.30;9.77;;;;;;;;;;5097363;28;20634;-43
2021/03/31 13:41:16;;;;;;;12.57;10.93;;;;;;;;;;5106548;28;20644;-44
2021/03/31 13:43:42;;;;;;;11.60;10.40;;;;;;;;;;5090684;28;20597;-43
2021/03/31 13:46:07;;;;;;;10.55;9.55;;;;;;;;;;5109493;28;20631;-44
2021/03/31 13:51:19;;;;;;;10.30;9.40;;;;;;;;;;5107988;28;20266;-44
2021/03/31 13:53:45;;;;;;;11.07;9.53;;;;;;;;;;5107678;28;20587;-45
2021/03/31 13:56:28;;;;;;;11.53;9.67;;;;;;;;;;5108604;28;20629;-45
2021/03/31 13:58:53;;;;;;;10.63;9.70;;;;;;;;;;5109035;28;20194;-45
2021/03/31 14:01:18;;;;;;;10.53;9.43;;;;;;;;;;5109185;28;20587;-44
2021/03/31 14:03:43;;;;;;;10.63;9.50;;;;;;;;;;5108845;28;20170;-44
2021/03/31 14:06:08;;;;;;;11.07;10.02;;;;;;;;;;5109522;28;20631;-44
2021/03/31 14:08:34;;;;;;;10.43;9.47;;;;;;;;;;5108183;28;20207;-44
2021/03/31 14:10:59;;;;;;;11.47;10.37;;;;;;;;;;5107704;28;20656;-44
2021/03/31 14:13:24;;;;;;;12.27;11.07;;;;;;;;;;5108502;28;20187;-44
2021/03/31 14:15:50;;;;;;;10.98;9.88;;;;;;;;;;5108479;28;20182;-44
2021/03/31 14:18:16;;;;;;;10.10;9.20;;;;;;;;;;5107613;28;20675;-45
2021/03/31 14:20:41;;;;;;;9.83;8.17;;;;;;;;;;5108347;28;20178;-44
2021/03/31 14:23:06;;;;;;;10.30;9.40;;;;;;;;;;5108609;28;20617;-44
2021/03/31 14:25:31;;;;;;;11.17;9.53;;;;;;;;;;5107700;28;20179;-45
2021/03/31 14:27:57;;;;;;;13.57;8.40;;;;;;;;;;5103882;28;20178;-45
2021/03/31 14:30:23;;;;;;;8.80;8.00;;;;;;;;;;5108428;28;20174;-45
2021/03/31 14:32:48;;;;;;;11.10;9.20;;;;;;;;;;5100964;28;20270;-45
2021/03/31 14:35:13;;;;;;;9.90;9.00;;;;;;;;;;5090205;28;20581;-44
2021/03/31 14:37:38;;;;;;;13.90;10.03;;;;;;;;;;5105924;28;20217;-44
2021/03/31 14:40:04;;;;;;;10.63;9.63;;;;;;;;;;5106879;28;20201;-44
2021/03/31 14:42:31;;;;;;;11.50;10.40;;;;;;;;;;5093243;28;20170;-44
2021/03/31 14:44:56;;;;;;;13.47;11.40;;;;;;;;;;5089020;28;20560;-44
2021/03/31 14:47:22;;;;;;;10.40;9.40;;;;;;;;;;5108148;28;20683;-44
2021/03/31 14:49:47;;;;;;;10.77;9.17;;;;;;;;;;5108643;28;20631;-44
2021/03/31 14:55:27;;;;;;;12.50;11.13;;;;;;;;;;5099223;28;20192;-44
2021/03/31 15:00:26;;;;;;;15.20;10.90;;;;;;;;;;5108156;28;20996;-45